sensor_id;sensor_type;location;lat;lon;timestamp;pressure;altitude;pressure_sealevel;temperature;humidity
24336;BME280;33098;52.400;16.880;2023-04-28T00:02:01;101234.11;;;4.69;63.22
24336;BME280;33098;52.400;16.880;2023-04-28T00:04:28;101236.38;;;4.78;63.34
24336;BME280;33098;52.400;16.880;2023-04-28T00:06:55;101236.23;;;4.82;63.26
24336;BME280;33098;52.400;16.880;2023-04-28T00:09:24;101236.58;;;4.78;63.20
24336;BME280;33098;52.400;16.880;2023-04-28T00:11:51;101240.14;;;4.67;63.51
24336;BME280;33098;52.400;16.880;2023-04-28T00:14:17;101241.20;;;4.59;63.57
24336;BME280;33098;52.400;16.880;2023-04-28T00:16:44;101237.08;;;4.61;63.86
24336;BME280;33098;52.400;16.880;2023-04-28T00:19:11;101236.98;;;4.63;63.79
24336;BME280;33098;52.400;16.880;2023-04-28T00:21:38;101240.70;;;4.63;63.67
24336;BME280;33098;52.400;16.880;2023-04-28T00:24:06;101241.93;;;4.63;63.90
24336;BME280;33098;52.400;16.880;2023-04-28T00:26:32;101243.10;;;4.64;63.72
24336;BME280;33098;52.400;16.880;2023-04-28T00:28:59;101239.64;;;4.63;63.79
24336;BME280;33098;52.400;16.880;2023-04-28T00:31:26;101242.91;;;4.60;63.93
24336;BME280;33098;52.400;16.880;2023-04-28T00:33:53;101241.16;;;4.60;64.09
24336;BME280;33098;52.400;16.880;2023-04-28T00:36:19;101241.38;;;4.59;63.95
24336;BME280;33098;52.400;16.880;2023-04-28T00:38:49;101240.02;;;4.57;64.12
24336;BME280;33098;52.400;16.880;2023-04-28T00:41:16;101244.20;;;4.54;64.05
24336;BME280;33098;52.400;16.880;2023-04-28T00:43:44;101239.95;;;4.51;64.21
24336;BME280;33098;52.400;16.880;2023-04-28T00:46:19;101235.25;;;4.46;64.25
24336;BME280;33098;52.400;16.880;2023-04-28T00:48:48;101239.11;;;4.36;64.39
24336;BME280;33098;52.400;16.880;2023-04-28T00:51:15;101236.52;;;4.35;64.45
24336;BME280;33098;52.400;16.880;2023-04-28T00:53:43;101238.36;;;4.33;64.47
24336;BME280;33098;52.400;16.880;2023-04-28T00:56:10;101233.05;;;4.21;64.53
24336;BME280;33098;52.400;16.880;2023-04-28T00:58:37;101233.05;;;4.12;64.73
24336;BME280;33098;52.400;16.880;2023-04-28T01:01:05;101227.00;;;4.09;64.91
24336;BME280;33098;52.400;16.880;2023-04-28T01:03:34;101224.17;;;4.15;65.08
24336;BME280;33098;52.400;16.880;2023-04-28T01:06:07;101224.90;;;4.23;65.23
24336;BME280;33098;52.400;16.880;2023-04-28T01:08:35;101223.04;;;4.21;65.22
24336;BME280;33098;52.400;16.880;2023-04-28T01:11:04;101224.98;;;4.25;65.21
24336;BME280;33098;52.400;16.880;2023-04-28T01:13:50;101226.06;;;4.20;65.44
24336;BME280;33098;52.400;16.880;2023-04-28T01:16:18;101223.02;;;4.07;65.37
24336;BME280;33098;52.400;16.880;2023-04-28T01:18:46;101225.50;;;4.07;65.64
24336;BME280;33098;52.400;16.880;2023-04-28T01:21:25;101227.70;;;4.09;65.54
24336;BME280;33098;52.400;16.880;2023-04-28T01:23:55;101223.88;;;4.13;65.62
24336;BME280;33098;52.400;16.880;2023-04-28T01:26:24;101226.38;;;4.21;65.76
24336;BME280;33098;52.400;16.880;2023-04-28T01:28:53;101228.54;;;4.20;65.54
24336;BME280;33098;52.400;16.880;2023-04-28T01:31:20;101228.34;;;4.16;65.56
24336;BME280;33098;52.400;16.880;2023-04-28T01:33:46;101225.52;;;4.11;65.65
24336;BME280;33098;52.400;16.880;2023-04-28T01:36:13;101225.70;;;3.98;65.88
24336;BME280;33098;52.400;16.880;2023-04-28T01:38:40;101224.23;;;3.81;65.77
24336;BME280;33098;52.400;16.880;2023-04-28T01:41:06;101227.46;;;3.74;66.07
24336;BME280;33098;52.400;16.880;2023-04-28T01:43:34;101226.89;;;3.75;66.38
24336;BME280;33098;52.400;16.880;2023-04-28T01:46:07;101227.45;;;3.70;66.34
24336;BME280;33098;52.400;16.880;2023-04-28T01:48:33;101230.38;;;3.71;66.37
24336;BME280;33098;52.400;16.880;2023-04-28T01:51:00;101223.02;;;3.81;66.63
24336;BME280;33098;52.400;16.880;2023-04-28T01:53:27;101217.18;;;3.86;66.70
24336;BME280;33098;52.400;16.880;2023-04-28T01:55:54;101221.92;;;3.95;66.74
24336;BME280;33098;52.400;16.880;2023-04-28T01:58:24;101221.79;;;3.94;66.44
24336;BME280;33098;52.400;16.880;2023-04-28T02:00:51;101222.20;;;3.88;66.63
24336;BME280;33098;52.400;16.880;2023-04-28T02:03:18;101225.19;;;3.83;66.59
24336;BME280;33098;52.400;16.880;2023-04-28T02:05:48;101221.02;;;3.82;66.57
24336;BME280;33098;52.400;16.880;2023-04-28T02:08:17;101220.83;;;3.82;66.81
24336;BME280;33098;52.400;16.880;2023-04-28T02:10:46;101220.70;;;3.81;66.83
24336;BME280;33098;52.400;16.880;2023-04-28T02:13:12;101218.02;;;3.73;66.78
24336;BME280;33098;52.400;16.880;2023-04-28T02:15:41;101217.92;;;3.66;66.87
24336;BME280;33098;52.400;16.880;2023-04-28T02:18:09;101217.39;;;3.62;67.12
24336;BME280;33098;52.400;16.880;2023-04-28T02:20:41;101211.59;;;3.62;67.16
24336;BME280;33098;52.400;16.880;2023-04-28T02:23:10;101216.73;;;3.70;67.29
24336;BME280;33098;52.400;16.880;2023-04-28T02:25:37;101214.11;;;3.65;67.23
24336;BME280;33098;52.400;16.880;2023-04-28T02:28:04;101218.98;;;3.66;67.35
24336;BME280;33098;52.400;16.880;2023-04-28T02:30:37;101217.30;;;3.64;67.38
24336;BME280;33098;52.400;16.880;2023-04-28T02:33:03;101214.14;;;3.60;67.33
24336;BME280;33098;52.400;16.880;2023-04-28T02:35:33;101219.50;;;3.52;67.52
24336;BME280;33098;52.400;16.880;2023-04-28T02:37:59;101219.95;;;3.49;67.45
24336;BME280;33098;52.400;16.880;2023-04-28T02:40:26;101217.64;;;3.55;67.64
24336;BME280;33098;52.400;16.880;2023-04-28T02:42:53;101221.80;;;3.61;67.82
24336;BME280;33098;52.400;16.880;2023-04-28T02:45:19;101223.56;;;3.61;67.72
24336;BME280;33098;52.400;16.880;2023-04-28T02:47:46;101224.44;;;3.61;67.59
24336;BME280;33098;52.400;16.880;2023-04-28T02:50:13;101222.95;;;3.63;67.77
24336;BME280;33098;52.400;16.880;2023-04-28T02:52:40;101224.16;;;3.64;67.85
24336;BME280;33098;52.400;16.880;2023-04-28T02:55:07;101217.89;;;3.57;67.79
24336;BME280;33098;52.400;16.880;2023-04-28T02:57:34;101222.56;;;3.50;67.68
24336;BME280;33098;52.400;16.880;2023-04-28T03:00:02;101219.41;;;3.50;67.75
24336;BME280;33098;52.400;16.880;2023-04-28T03:02:35;101220.41;;;3.41;68.02
24336;BME280;33098;52.400;16.880;2023-04-28T03:05:02;101218.61;;;3.32;67.94
24336;BME280;33098;52.400;16.880;2023-04-28T03:07:28;101219.67;;;3.27;68.02
24336;BME280;33098;52.400;16.880;2023-04-28T03:09:55;101219.23;;;3.25;68.24
24336;BME280;33098;52.400;16.880;2023-04-28T03:12:22;101222.79;;;3.24;68.42
24336;BME280;33098;52.400;16.880;2023-04-28T03:14:48;101217.95;;;3.37;68.71
24336;BME280;33098;52.400;16.880;2023-04-28T03:17:15;101215.04;;;3.39;68.45
24336;BME280;33098;52.400;16.880;2023-04-28T03:19:47;101210.89;;;3.43;68.38
24336;BME280;33098;52.400;16.880;2023-04-28T03:22:17;101214.81;;;3.46;68.48
24336;BME280;33098;52.400;16.880;2023-04-28T03:24:43;101213.77;;;3.50;68.50
24336;BME280;33098;52.400;16.880;2023-04-28T03:27:13;101212.36;;;3.55;68.58
24336;BME280;33098;52.400;16.880;2023-04-28T03:29:40;101211.27;;;3.51;68.22
24336;BME280;33098;52.400;16.880;2023-04-28T03:32:06;101215.66;;;3.37;68.18
24336;BME280;33098;52.400;16.880;2023-04-28T03:34:33;101216.08;;;3.30;68.50
24336;BME280;33098;52.400;16.880;2023-04-28T03:37:06;101213.58;;;3.31;68.50
24336;BME280;33098;52.400;16.880;2023-04-28T03:39:35;101214.52;;;3.39;68.59
24336;BME280;33098;52.400;16.880;2023-04-28T03:42:02;101210.13;;;3.49;68.85
24336;BME280;33098;52.400;16.880;2023-04-28T03:44:50;101210.63;;;3.50;68.68
24336;BME280;33098;52.400;16.880;2023-04-28T03:47:19;101211.80;;;3.37;68.39
24336;BME280;33098;52.400;16.880;2023-04-28T03:49:46;101213.10;;;3.35;68.79
24336;BME280;33098;52.400;16.880;2023-04-28T03:52:12;101210.85;;;3.38;68.69
24336;BME280;33098;52.400;16.880;2023-04-28T03:54:43;101210.39;;;3.37;68.58
24336;BME280;33098;52.400;16.880;2023-04-28T03:57:10;101215.66;;;3.32;68.70
24336;BME280;33098;52.400;16.880;2023-04-28T03:59:37;101210.42;;;3.26;68.72
24336;BME280;33098;52.400;16.880;2023-04-28T04:02:07;101213.02;;;3.32;68.99
24336;BME280;33098;52.400;16.880;2023-04-28T04:04:33;101213.54;;;3.42;69.04
24336;BME280;33098;52.400;16.880;2023-04-28T04:07:01;101211.39;;;3.53;69.21
24336;BME280;33098;52.400;16.880;2023-04-28T04:09:29;101209.44;;;3.54;69.18
24336;BME280;33098;52.400;16.880;2023-04-28T04:11:56;101208.77;;;3.53;69.19
24336;BME280;33098;52.400;16.880;2023-04-28T04:14:24;101211.73;;;3.53;69.18
24336;BME280;33098;52.400;16.880;2023-04-28T04:16:51;101212.41;;;3.63;69.21
24336;BME280;33098;52.400;16.880;2023-04-28T04:19:18;101213.70;;;3.66;69.33
24336;BME280;33098;52.400;16.880;2023-04-28T04:21:46;101213.61;;;3.73;69.45
24336;BME280;33098;52.400;16.880;2023-04-28T04:24:15;101210.27;;;3.83;69.31
24336;BME280;33098;52.400;16.880;2023-04-28T04:26:45;101211.31;;;3.83;69.40
24336;BME280;33098;52.400;16.880;2023-04-28T04:29:25;101216.91;;;3.80;69.35
24336;BME280;33098;52.400;16.880;2023-04-28T04:31:52;101220.20;;;3.81;69.52
24336;BME280;33098;52.400;16.880;2023-04-28T04:34:19;101218.55;;;3.92;69.72
24336;BME280;33098;52.400;16.880;2023-04-28T04:36:45;101214.62;;;4.07;69.97
24336;BME280;33098;52.400;16.880;2023-04-28T04:39:14;101214.42;;;4.21;69.81
24336;BME280;33098;52.400;16.880;2023-04-28T04:41:42;101215.34;;;4.29;69.84
24336;BME280;33098;52.400;16.880;2023-04-28T04:44:33;101218.84;;;4.29;69.67
24336;BME280;33098;52.400;16.880;2023-04-28T04:47:00;101212.82;;;4.39;69.97
24336;BME280;33098;52.400;16.880;2023-04-28T04:49:30;101208.05;;;4.53;70.00
24336;BME280;33098;52.400;16.880;2023-04-28T04:52:01;101211.06;;;4.61;69.97
24336;BME280;33098;52.400;16.880;2023-04-28T04:54:29;101208.30;;;4.68;70.09
24336;BME280;33098;52.400;16.880;2023-04-28T04:56:57;101214.00;;;4.75;70.01
24336;BME280;33098;52.400;16.880;2023-04-28T04:59:42;101211.27;;;4.85;70.27
24336;BME280;33098;52.400;16.880;2023-04-28T05:02:13;101217.27;;;4.89;69.93
24336;BME280;33098;52.400;16.880;2023-04-28T05:04:40;101213.60;;;5.01;70.03
24336;BME280;33098;52.400;16.880;2023-04-28T05:07:09;101213.36;;;5.15;70.01
24336;BME280;33098;52.400;16.880;2023-04-28T05:09:38;101213.08;;;5.33;69.89
24336;BME280;33098;52.400;16.880;2023-04-28T05:12:10;101215.11;;;5.47;69.73
24336;BME280;33098;52.400;16.880;2023-04-28T05:14:37;101211.31;;;5.61;69.68
24336;BME280;33098;52.400;16.880;2023-04-28T05:17:06;101208.38;;;5.75;69.37
24336;BME280;33098;52.400;16.880;2023-04-28T05:19:36;101207.20;;;5.89;69.19
24336;BME280;33098;52.400;16.880;2023-04-28T05:22:03;101204.50;;;5.98;68.90
24336;BME280;33098;52.400;16.880;2023-04-28T05:24:30;101203.95;;;6.11;68.79
24336;BME280;33098;52.400;16.880;2023-04-28T05:26:58;101205.35;;;6.18;68.48
24336;BME280;33098;52.400;16.880;2023-04-28T05:29:25;101210.75;;;6.27;68.39
24336;BME280;33098;52.400;16.880;2023-04-28T05:31:52;101206.77;;;6.36;68.34
24336;BME280;33098;52.400;16.880;2023-04-28T05:34:25;101207.59;;;6.48;68.02
24336;BME280;33098;52.400;16.880;2023-04-28T05:36:54;101209.23;;;6.61;67.85
24336;BME280;33098;52.400;16.880;2023-04-28T05:39:25;101211.98;;;6.70;67.63
24336;BME280;33098;52.400;16.880;2023-04-28T05:41:58;101208.93;;;6.78;67.54
24336;BME280;33098;52.400;16.880;2023-04-28T05:44:25;101207.58;;;6.87;67.39
24336;BME280;33098;52.400;16.880;2023-04-28T05:46:52;101209.59;;;7.00;67.29
24336;BME280;33098;52.400;16.880;2023-04-28T05:49:22;101207.11;;;7.07;67.07
24336;BME280;33098;52.400;16.880;2023-04-28T05:51:51;101203.11;;;7.16;66.90
24336;BME280;33098;52.400;16.880;2023-04-28T05:54:18;101201.27;;;7.24;66.74
24336;BME280;33098;52.400;16.880;2023-04-28T05:56:46;101198.61;;;7.31;66.56
24336;BME280;33098;52.400;16.880;2023-04-28T05:59:13;101199.89;;;7.37;66.21
24336;BME280;33098;52.400;16.880;2023-04-28T06:01:41;101195.96;;;7.48;65.95
24336;BME280;33098;52.400;16.880;2023-04-28T06:04:08;101200.60;;;7.61;65.45
24336;BME280;33098;52.400;16.880;2023-04-28T06:06:39;101199.55;;;7.73;65.26
24336;BME280;33098;52.400;16.880;2023-04-28T06:09:05;101197.73;;;7.87;65.17
24336;BME280;33098;52.400;16.880;2023-04-28T06:11:35;101194.85;;;8.10;65.16
24336;BME280;33098;52.400;16.880;2023-04-28T06:14:02;101195.29;;;8.28;64.83
24336;BME280;33098;52.400;16.880;2023-04-28T06:16:34;101196.39;;;8.33;64.49
24336;BME280;33098;52.400;16.880;2023-04-28T06:19:04;101193.80;;;8.39;64.21
24336;BME280;33098;52.400;16.880;2023-04-28T06:21:32;101187.03;;;8.43;64.00
24336;BME280;33098;52.400;16.880;2023-04-28T06:23:59;101183.11;;;8.50;63.77
24336;BME280;33098;52.400;16.880;2023-04-28T06:26:27;101184.59;;;8.60;63.47
24336;BME280;33098;52.400;16.880;2023-04-28T06:28:55;101185.48;;;8.70;63.02
24336;BME280;33098;52.400;16.880;2023-04-28T06:31:22;101182.42;;;8.77;62.82
24336;BME280;33098;52.400;16.880;2023-04-28T06:33:52;101184.94;;;8.85;62.70
24336;BME280;33098;52.400;16.880;2023-04-28T06:36:19;101187.20;;;8.97;62.44
24336;BME280;33098;52.400;16.880;2023-04-28T06:38:46;101185.00;;;9.05;62.06
24336;BME280;33098;52.400;16.880;2023-04-28T06:41:13;101179.36;;;9.10;61.95
24336;BME280;33098;52.400;16.880;2023-04-28T06:43:41;101170.70;;;9.19;61.79
24336;BME280;33098;52.400;16.880;2023-04-28T06:46:13;101165.67;;;9.26;61.66
24336;BME280;33098;52.400;16.880;2023-04-28T06:48:42;101169.11;;;9.33;61.27
24336;BME280;33098;52.400;16.880;2023-04-28T06:51:14;101167.04;;;9.41;60.59
24336;BME280;33098;52.400;16.880;2023-04-28T06:53:41;101171.75;;;9.51;60.32
24336;BME280;33098;52.400;16.880;2023-04-28T06:56:08;101167.52;;;9.56;60.08
24336;BME280;33098;52.400;16.880;2023-04-28T06:58:35;101161.69;;;9.61;59.94
24336;BME280;33098;52.400;16.880;2023-04-28T07:01:03;101166.05;;;9.65;59.75
24336;BME280;33098;52.400;16.880;2023-04-28T07:03:33;101163.38;;;9.69;59.64
24336;BME280;33098;52.400;16.880;2023-04-28T07:06:00;101166.23;;;9.74;59.47
24336;BME280;33098;52.400;16.880;2023-04-28T07:08:33;101165.37;;;9.82;58.95
24336;BME280;33098;52.400;16.880;2023-04-28T07:10:59;101164.87;;;9.90;58.51
24336;BME280;33098;52.400;16.880;2023-04-28T07:13:32;101161.98;;;9.99;58.19
24336;BME280;33098;52.400;16.880;2023-04-28T07:16:03;101161.42;;;10.07;58.12
24336;BME280;33098;52.400;16.880;2023-04-28T07:18:30;101157.04;;;10.17;57.90
24336;BME280;33098;52.400;16.880;2023-04-28T07:20:56;101152.98;;;10.20;57.25
24336;BME280;33098;52.400;16.880;2023-04-28T07:23:23;101149.66;;;10.22;57.23
24336;BME280;33098;52.400;16.880;2023-04-28T07:25:50;101148.85;;;10.26;57.01
24336;BME280;33098;52.400;16.880;2023-04-28T07:28:20;101147.50;;;10.30;57.10
24336;BME280;33098;52.400;16.880;2023-04-28T07:30:51;101150.05;;;10.38;56.86
24336;BME280;33098;52.400;16.880;2023-04-28T07:33:18;101143.23;;;10.45;56.60
24336;BME280;33098;52.400;16.880;2023-04-28T07:35:45;101140.48;;;10.49;56.49
24336;BME280;33098;52.400;16.880;2023-04-28T07:38:13;101133.96;;;10.51;56.23
24336;BME280;33098;52.400;16.880;2023-04-28T07:40:49;101130.73;;;10.59;56.01
24336;BME280;33098;52.400;16.880;2023-04-28T07:43:16;101128.93;;;10.68;55.65
24336;BME280;33098;52.400;16.880;2023-04-28T07:45:43;101129.95;;;10.73;55.28
24336;BME280;33098;52.400;16.880;2023-04-28T07:48:11;101128.36;;;10.81;55.03
24336;BME280;33098;52.400;16.880;2023-04-28T07:50:40;101117.99;;;10.87;54.86
24336;BME280;33098;52.400;16.880;2023-04-28T07:53:09;101122.02;;;10.93;54.93
24336;BME280;33098;52.400;16.880;2023-04-28T07:55:36;101118.70;;;11.03;54.62
24336;BME280;33098;52.400;16.880;2023-04-28T07:58:15;101116.53;;;11.11;54.36
24336;BME280;33098;52.400;16.880;2023-04-28T08:00:42;101116.11;;;11.17;54.29
24336;BME280;33098;52.400;16.880;2023-04-28T08:03:14;101111.36;;;11.24;53.84
24336;BME280;33098;52.400;16.880;2023-04-28T08:05:48;101104.54;;;11.30;53.70
24336;BME280;33098;52.400;16.880;2023-04-28T08:08:18;101100.86;;;11.37;53.64
24336;BME280;33098;52.400;16.880;2023-04-28T08:10:47;101097.79;;;11.42;53.55
24336;BME280;33098;52.400;16.880;2023-04-28T08:13:16;101091.68;;;11.46;53.44
24336;BME280;33098;52.400;16.880;2023-04-28T08:15:43;101094.40;;;11.47;53.20
24336;BME280;33098;52.400;16.880;2023-04-28T08:18:09;101088.58;;;11.54;53.09
24336;BME280;33098;52.400;16.880;2023-04-28T08:20:39;101089.66;;;11.64;53.07
24336;BME280;33098;52.400;16.880;2023-04-28T08:23:10;101092.92;;;11.68;52.94
24336;BME280;33098;52.400;16.880;2023-04-28T08:25:37;101082.73;;;11.71;52.46
24336;BME280;33098;52.400;16.880;2023-04-28T08:28:07;101081.27;;;11.72;52.43
24336;BME280;33098;52.400;16.880;2023-04-28T08:30:42;101075.77;;;11.76;52.45
24336;BME280;33098;52.400;16.880;2023-04-28T08:33:12;101073.60;;;11.82;52.51
24336;BME280;33098;52.400;16.880;2023-04-28T08:35:38;101063.98;;;11.87;52.44
24336;BME280;33098;52.400;16.880;2023-04-28T08:38:06;101066.63;;;11.92;52.38
24336;BME280;33098;52.400;16.880;2023-04-28T08:40:33;101063.65;;;12.01;52.52
24336;BME280;33098;52.400;16.880;2023-04-28T08:43:00;101060.19;;;12.07;52.31
24336;BME280;33098;52.400;16.880;2023-04-28T08:45:31;101057.35;;;12.12;51.65
24336;BME280;33098;52.400;16.880;2023-04-28T08:48:13;101046.73;;;12.11;51.61
24336;BME280;33098;52.400;16.880;2023-04-28T08:50:51;101048.66;;;12.16;51.70
24336;BME280;33098;52.400;16.880;2023-04-28T08:53:23;101047.09;;;12.27;51.65
24336;BME280;33098;52.400;16.880;2023-04-28T08:55:54;101046.88;;;12.38;51.61
24336;BME280;33098;52.400;16.880;2023-04-28T08:58:31;101042.81;;;12.48;51.40
24336;BME280;33098;52.400;16.880;2023-04-28T09:01:00;101035.52;;;12.55;51.38
24336;BME280;33098;52.400;16.880;2023-04-28T09:03:31;101033.67;;;12.58;51.17
24336;BME280;33098;52.400;16.880;2023-04-28T09:06:00;101036.48;;;12.66;51.23
24336;BME280;33098;52.400;16.880;2023-04-28T09:08:27;101026.41;;;12.72;50.65
24336;BME280;33098;52.400;16.880;2023-04-28T09:11:10;101021.56;;;12.66;50.51
24336;BME280;33098;52.400;16.880;2023-04-28T09:13:39;101017.33;;;12.74;50.89
24336;BME280;33098;52.400;16.880;2023-04-28T09:16:09;101015.81;;;12.84;50.90
24336;BME280;33098;52.400;16.880;2023-04-28T09:18:35;101014.67;;;12.97;50.93
24336;BME280;33098;52.400;16.880;2023-04-28T09:21:08;101012.81;;;13.11;50.99
24336;BME280;33098;52.400;16.880;2023-04-28T09:23:46;101011.23;;;13.24;50.79
24336;BME280;33098;52.400;16.880;2023-04-28T09:26:16;101014.58;;;13.36;50.65
24336;BME280;33098;52.400;16.880;2023-04-28T09:28:45;101009.60;;;13.45;50.61
24336;BME280;33098;52.400;16.880;2023-04-28T09:31:23;101007.36;;;13.52;50.33
24336;BME280;33098;52.400;16.880;2023-04-28T09:33:57;101003.95;;;13.62;50.17
24336;BME280;33098;52.400;16.880;2023-04-28T09:36:28;100997.05;;;13.68;50.12
24336;BME280;33098;52.400;16.880;2023-04-28T09:38:57;100995.86;;;13.77;49.99
24336;BME280;33098;52.400;16.880;2023-04-28T09:44:18;100996.02;;;14.01;49.38
24336;BME280;33098;52.400;16.880;2023-04-28T09:46:46;100987.23;;;14.12;49.47
24336;BME280;33098;52.400;16.880;2023-04-28T09:49:13;100984.57;;;14.22;49.33
24336;BME280;33098;52.400;16.880;2023-04-28T09:51:41;100977.00;;;14.28;49.34
24336;BME280;33098;52.400;16.880;2023-04-28T09:54:07;100977.05;;;14.33;49.22
24336;BME280;33098;52.400;16.880;2023-04-28T09:56:35;100977.31;;;14.38;48.99
24336;BME280;33098;52.400;16.880;2023-04-28T09:59:04;100966.68;;;14.38;48.42
24336;BME280;33098;52.400;16.880;2023-04-28T10:01:36;100967.90;;;14.40;48.55
24336;BME280;33098;52.400;16.880;2023-04-28T10:04:04;100964.38;;;14.52;48.46
24336;BME280;33098;52.400;16.880;2023-04-28T10:06:38;100953.62;;;14.65;48.57
24336;BME280;33098;52.400;16.880;2023-04-28T10:09:07;100954.89;;;14.85;48.49
24336;BME280;33098;52.400;16.880;2023-04-28T10:11:35;100953.33;;;15.01;48.23
24336;BME280;33098;52.400;16.880;2023-04-28T10:14:11;100949.98;;;15.12;48.17
24336;BME280;33098;52.400;16.880;2023-04-28T10:16:38;100952.08;;;15.25;47.91
24336;BME280;33098;52.400;16.880;2023-04-28T10:19:05;100942.06;;;15.29;47.06
24336;BME280;33098;52.400;16.880;2023-04-28T10:21:43;100938.91;;;15.26;47.21
24336;BME280;33098;52.400;16.880;2023-04-28T10:24:28;100939.67;;;15.41;47.49
24336;BME280;33098;52.400;16.880;2023-04-28T10:27:09;100939.80;;;15.60;47.16
24336;BME280;33098;52.400;16.880;2023-04-28T10:29:36;100937.84;;;15.68;46.46
24336;BME280;33098;52.400;16.880;2023-04-28T10:32:22;100936.45;;;15.69;46.67
24336;BME280;33098;52.400;16.880;2023-04-28T10:34:49;100941.04;;;15.84;46.97
24336;BME280;33098;52.400;16.880;2023-04-28T10:42:58;100918.24;;;16.07;46.64
24336;BME280;33098;52.400;16.880;2023-04-28T10:56:13;100899.41;;;16.49;45.55
24336;BME280;33098;52.400;16.880;2023-04-28T10:58:42;100903.01;;;16.60;45.64
24336;BME280;33098;52.400;16.880;2023-04-28T11:06:26;100885.02;;;17.05;45.21
24336;BME280;33098;52.400;16.880;2023-04-28T11:09:00;100884.36;;;17.17;44.94
24336;BME280;33098;52.400;16.880;2023-04-28T11:11:28;100888.48;;;17.23;44.22
24336;BME280;33098;52.400;16.880;2023-04-28T11:19:24;100868.23;;;17.33;44.33
24336;BME280;33098;52.400;16.880;2023-04-28T11:21:53;100872.67;;;17.52;44.54
24336;BME280;33098;52.400;16.880;2023-04-28T11:24:23;100869.95;;;17.72;43.77
24336;BME280;33098;52.400;16.880;2023-04-28T11:26:59;100870.96;;;17.83;43.74
24336;BME280;33098;52.400;16.880;2023-04-28T11:29:38;100872.10;;;18.03;43.76
24336;BME280;33098;52.400;16.880;2023-04-28T11:32:09;100864.84;;;18.27;43.77
24336;BME280;33098;52.400;16.880;2023-04-28T11:34:40;100866.47;;;18.52;43.60
24336;BME280;33098;52.400;16.880;2023-04-28T11:37:07;100865.00;;;18.73;43.26
24336;BME280;33098;52.400;16.880;2023-04-28T11:39:35;100861.48;;;18.86;43.02
24336;BME280;33098;52.400;16.880;2023-04-28T11:42:09;100855.16;;;19.00;42.79
24336;BME280;33098;52.400;16.880;2023-04-28T11:44:37;100850.60;;;19.12;42.60
24336;BME280;33098;52.400;16.880;2023-04-28T11:47:05;100845.07;;;19.30;42.46
24336;BME280;33098;52.400;16.880;2023-04-28T11:52:07;100849.98;;;19.66;41.89
24336;BME280;33098;52.400;16.880;2023-04-28T11:54:35;100849.81;;;19.75;41.24
24336;BME280;33098;52.400;16.880;2023-04-28T11:57:03;100848.75;;;19.79;41.35
24336;BME280;33098;52.400;16.880;2023-04-28T11:59:33;100842.42;;;19.86;40.71
24336;BME280;33098;52.400;16.880;2023-04-28T12:02:05;100837.75;;;19.82;40.62
24336;BME280;33098;52.400;16.880;2023-04-28T12:04:37;100836.69;;;19.95;41.08
24336;BME280;33098;52.400;16.880;2023-04-28T12:07:06;100829.07;;;20.21;41.05
24336;BME280;33098;52.400;16.880;2023-04-28T12:09:37;100829.82;;;20.43;40.97
24336;BME280;33098;52.400;16.880;2023-04-28T12:12:08;100828.95;;;20.63;40.71
24336;BME280;33098;52.400;16.880;2023-04-28T12:14:58;100828.06;;;20.90;40.56
24336;BME280;33098;52.400;16.880;2023-04-28T12:17:32;100823.31;;;21.15;39.75
24336;BME280;33098;52.400;16.880;2023-04-28T12:20:00;100826.69;;;21.48;40.07
24336;BME280;33098;52.400;16.880;2023-04-28T12:22:28;100822.74;;;21.67;38.61
24336;BME280;33098;52.400;16.880;2023-04-28T12:25:12;100824.62;;;21.53;38.25
24336;BME280;33098;52.400;16.880;2023-04-28T12:27:39;100816.48;;;21.69;38.88
24336;BME280;33098;52.400;16.880;2023-04-28T12:32:46;100806.14;;;22.05;38.55
24336;BME280;33098;52.400;16.880;2023-04-28T12:35:16;100805.77;;;22.27;38.63
24336;BME280;33098;52.400;16.880;2023-04-28T12:37:46;100810.14;;;22.49;38.54
24336;BME280;33098;52.400;16.880;2023-04-28T12:40:13;100792.74;;;22.60;38.08
24336;BME280;33098;52.400;16.880;2023-04-28T12:42:42;100800.88;;;22.64;37.52
24336;BME280;33098;52.400;16.880;2023-04-28T12:45:09;100799.38;;;22.72;37.57
24336;BME280;33098;52.400;16.880;2023-04-28T12:47:38;100794.43;;;22.83;37.68
24336;BME280;33098;52.400;16.880;2023-04-28T12:50:06;100794.75;;;22.99;37.13
24336;BME280;33098;52.400;16.880;2023-04-28T12:52:33;100791.81;;;22.88;36.27
24336;BME280;33098;52.400;16.880;2023-04-28T12:55:02;100788.27;;;22.80;36.59
24336;BME280;33098;52.400;16.880;2023-04-28T12:57:28;100784.08;;;22.90;37.03
24336;BME280;33098;52.400;16.880;2023-04-28T12:59:56;100781.74;;;23.00;36.57
24336;BME280;33098;52.400;16.880;2023-04-28T13:02:23;100777.27;;;22.83;36.00
24336;BME280;33098;52.400;16.880;2023-04-28T13:04:52;100781.36;;;22.57;36.36
24336;BME280;33098;52.400;16.880;2023-04-28T13:07:19;100775.54;;;22.63;36.88
24336;BME280;33098;52.400;16.880;2023-04-28T13:09:47;100772.66;;;22.76;36.71
24336;BME280;33098;52.400;16.880;2023-04-28T13:12:14;100765.95;;;22.86;36.55
24336;BME280;33098;52.400;16.880;2023-04-28T13:14:43;100760.17;;;22.99;36.68
24336;BME280;33098;52.400;16.880;2023-04-28T13:17:10;100758.32;;;23.10;36.07
24336;BME280;33098;52.400;16.880;2023-04-28T13:19:43;100754.23;;;22.79;35.26
24336;BME280;33098;52.400;16.880;2023-04-28T13:22:13;100749.84;;;22.40;34.95
24336;BME280;33098;52.400;16.880;2023-04-28T13:24:40;100745.90;;;22.27;35.79
24336;BME280;33098;52.400;16.880;2023-04-28T13:27:10;100738.20;;;22.57;36.21
24336;BME280;33098;52.400;16.880;2023-04-28T13:29:37;100731.54;;;22.90;36.21
24336;BME280;33098;52.400;16.880;2023-04-28T13:32:04;100729.91;;;23.36;36.40